EICL weather

Clonbullogue Aerodrome
Clonbullogue, County Offaly, Ireland

Public forecast

Using degrees Celsius for public forecast. Weather courtesy of forecast.io.

Closest aviation weather report (METAR) to Clonbullogue Aerodrome

Closest report is Casement Air Base, 24.3 nm (45.0 km) E. Retrieved 2020/02/22 09:00 UTC (1 hour ago):

EIME 220900Z 24023G34KT 9999 FEW010 SCT060 BKN250 06/03 Q1010

Closest aviation forecast (TAF) to Clonbullogue Aerodrome

Closest forecast is Dublin Airport, 32.3 nm (59.7 km) ENE. Retrieved 2020/02/22 06:09 UTC (4 hours ago):

TAF EIDW 220500Z 2206/2306 25017G27KT 9999 FEW012 SCT025 TEMPO 2206/2217 26022G35KT -SHRA SCT020CB PROB40 TEMPO 2206/2215 5000 SHRA BECMG 2218/2220 24015KT TEMPO 2221/2306 -RA BKN012 BECMG 2222/2224 24010KT PROB40 TEMPO 2222/2305 5000 RA BKN009 BECMG 2303/2305 28008KT